»·PEaware :: N275ND KSNA-KSNA

N275ND :: KSNA-KSNA

FLIGHT INFORMATION

Flight Status: Arrived
Operator: Privately registered:
United States
More flights under this callsign
Pilot: John A. (19135)
Aircraft: CESSNA 172 SKYHAWK
(C172)
More flights by this aircraft type
Origin: KSNA John Wayne-Orange Co
United States
Destination: KSNA John Wayne-Orange Co
United States
More flights between these airports :: More routes between these airports
Route: +SLI
File this flight plan on PilotEdge
Remarks:
Altitude:
(Current/Filed)
3,000ft
Speed:
(Current/Filed)
115kts
Departed: 17-Jul-19 10:53 AM
Arrived: 17-Jul-19 11:20 AM
Distance/Time
Traveled:
0nm/0:27
Distance/Time
To Go:
Arrived

Flight Plot

Page will automatically refresh every two minutes.


Map Options




Map Legend


Flown Route
Filed Route
Departure Airport
Arrival Airport
Navaid (VOR, NDB)
Fix

Horizontal Profiles

Position Reports

Time Latitude Longitude Heading Altitude Ground
Speed
17-Jul-19 10:34 33.671189 -117.868027 211 60ft 0kts
17-Jul-19 10:35 33.671189 -117.868027 211 60ft 0kts
17-Jul-19 10:36 33.671189 -117.868027 211 60ft 0kts
17-Jul-19 10:37 33.671189 -117.868027 211 60ft 0kts
17-Jul-19 10:38 33.671189 -117.868027 211 60ft 0kts
17-Jul-19 10:39 33.671189 -117.868027 211 60ft 0kts
17-Jul-19 10:40 33.671189 -117.868027 211 60ft 0kts
17-Jul-19 10:41 33.671189 -117.868027 211 60ft 0kts
17-Jul-19 10:42 33.671189 -117.868027 211 60ft 0kts
17-Jul-19 10:43 33.671189 -117.868027 211 60ft 0kts
17-Jul-19 10:44 33.672522 -117.867834 25 60ft 9kts
17-Jul-19 10:45 33.675936 -117.865920 24 60ft 11kts
17-Jul-19 10:46 33.679076 -117.863904 28 60ft 8kts
17-Jul-19 10:47 33.679933 -117.863541 303 60ft 0kts
17-Jul-19 10:48 33.679933 -117.863541 303 60ft 0kts
17-Jul-19 10:49 33.679933 -117.863541 303 60ft 0kts
17-Jul-19 10:50 33.679933 -117.863541 303 60ft 0kts
17-Jul-19 10:51 33.680512 -117.864905 296 60ft 26kts
17-Jul-19 10:52 33.667755 -117.874675 210 430ft 83kts
17-Jul-19 10:53 33.656212 -117.896854 247 1327ft 79kts
17-Jul-19 10:54 33.645859 -117.921225 240 2152ft 82kts
17-Jul-19 10:55 33.634332 -117.946589 248 2887ft 91kts
17-Jul-19 10:56 33.621744 -117.980912 245 2969ft 127kts
17-Jul-19 10:57 33.606816 -118.020831 244 2947ft 131kts
17-Jul-19 10:58 33.629288 -118.031068 22 2967ft 130kts
17-Jul-19 10:59 33.661810 -118.012974 19 2935ft 121kts
17-Jul-19 11:00 33.692421 -117.999055 19 2959ft 119kts
17-Jul-19 11:01 33.720967 -117.978933 27 3004ft 120kts
17-Jul-19 11:02 33.749249 -117.956260 32 2970ft 121kts
17-Jul-19 11:03 33.777129 -117.933313 33 2994ft 118kts
17-Jul-19 11:04 33.804851 -117.910694 31 3021ft 118kts
17-Jul-19 11:05 33.833724 -117.890653 28 2980ft 126kts
17-Jul-19 11:06 33.862325 -117.870806 35 2934ft 111kts
17-Jul-19 11:07 33.886166 -117.850898 68 3063ft 103kts
17-Jul-19 11:08 33.885184 -117.815403 94 2967ft 102kts
17-Jul-19 11:09 33.882784 -117.779921 90 2984ft 111kts
17-Jul-19 11:10 33.880746 -117.742181 91 2945ft 114kts
17-Jul-19 11:11 33.859238 -117.741486 228 2858ft 107kts
17-Jul-19 11:12 33.842771 -117.771575 210 2950ft 115kts
17-Jul-19 11:13 33.816393 -117.787068 203 2850ft 97kts
17-Jul-19 11:14 33.792106 -117.799629 205 2805ft 103kts
17-Jul-19 11:15 33.762683 -117.812728 214 1901ft 118kts
17-Jul-19 11:16 33.738410 -117.830665 202 1246ft 98kts
17-Jul-19 11:17 33.714351 -117.847523 202 499ft 93kts
17-Jul-19 11:18 33.692097 -117.859098 201 369ft 81kts
17-Jul-19 11:19 33.677448 -117.867306 98 60ft 8kts
17-Jul-19 11:21 33.677123 -117.866200 118 60ft 16kts
17-Jul-19 11:22 33.672973 -117.867668 191 60ft 16kts
17-Jul-19 11:23 33.672014 -117.867427 193 60ft 0kts
17-Jul-19 11:24 33.672014 -117.867427 193 60ft 0kts

Navigation Log

Ident Type
Flight plan parsing failed, navigation log unavailable